sensor_id;sensor_type;location;lat;lon;timestamp;temperature;humidity
22235;DHT22;11286;45.596;5.284;2023-01-15T00:01:02;10.40;99.90
22235;DHT22;11286;45.596;5.284;2023-01-15T00:03:28;10.20;99.90
22235;DHT22;11286;45.596;5.284;2023-01-15T00:05:54;10.20;99.90
22235;DHT22;11286;45.596;5.284;2023-01-15T00:08:20;10.10;99.90
22235;DHT22;11286;45.596;5.284;2023-01-15T00:10:45;10.10;99.90
22235;DHT22;11286;45.596;5.284;2023-01-15T00:13:11;10.10;99.90
22235;DHT22;11286;45.596;5.284;2023-01-15T00:15:37;10.00;99.90
22235;DHT22;11286;45.596;5.284;2023-01-15T00:18:03;9.90;99.90
22235;DHT22;11286;45.596;5.284;2023-01-15T00:20:28;9.90;99.90
22235;DHT22;11286;45.596;5.284;2023-01-15T00:22:54;10.00;99.90
22235;DHT22;11286;45.596;5.284;2023-01-15T00:25:20;10.00;99.90
22235;DHT22;11286;45.596;5.284;2023-01-15T00:28:04;10.00;99.90
22235;DHT22;11286;45.596;5.284;2023-01-15T00:30:30;10.10;99.90
22235;DHT22;11286;45.596;5.284;2023-01-15T00:32:57;10.10;99.90
22235;DHT22;11286;45.596;5.284;2023-01-15T00:35:23;10.00;99.90
22235;DHT22;11286;45.596;5.284;2023-01-15T00:37:50;10.10;99.90
22235;DHT22;11286;45.596;5.284;2023-01-15T00:40:18;10.10;99.90
22235;DHT22;11286;45.596;5.284;2023-01-15T00:42:44;9.90;99.90
22235;DHT22;11286;45.596;5.284;2023-01-15T00:45:11;10.00;99.90
22235;DHT22;11286;45.596;5.284;2023-01-15T00:47:41;10.00;99.90
22235;DHT22;11286;45.596;5.284;2023-01-15T00:50:10;9.90;99.90
22235;DHT22;11286;45.596;5.284;2023-01-15T00:52:36;9.90;99.90
22235;DHT22;11286;45.596;5.284;2023-01-15T00:55:02;10.00;99.90
22235;DHT22;11286;45.596;5.284;2023-01-15T00:57:28;9.90;99.90
22235;DHT22;11286;45.596;5.284;2023-01-15T00:59:54;9.90;99.90
22235;DHT22;11286;45.596;5.284;2023-01-15T01:02:20;9.90;99.90
22235;DHT22;11286;45.596;5.284;2023-01-15T01:04:45;9.90;99.90
22235;DHT22;11286;45.596;5.284;2023-01-15T01:07:11;10.00;99.90
22235;DHT22;11286;45.596;5.284;2023-01-15T01:09:37;10.10;99.90
22235;DHT22;11286;45.596;5.284;2023-01-15T01:12:03;10.00;99.90
22235;DHT22;11286;45.596;5.284;2023-01-15T01:14:29;10.10;99.90
22235;DHT22;11286;45.596;5.284;2023-01-15T01:16:54;10.10;99.90
22235;DHT22;11286;45.596;5.284;2023-01-15T01:19:22;10.10;99.90
22235;DHT22;11286;45.596;5.284;2023-01-15T01:21:49;10.10;99.90
22235;DHT22;11286;45.596;5.284;2023-01-15T01:24:18;10.20;99.90
22235;DHT22;11286;45.596;5.284;2023-01-15T01:26:44;10.20;99.90
22235;DHT22;11286;45.596;5.284;2023-01-15T01:29:16;10.10;99.90
22235;DHT22;11286;45.596;5.284;2023-01-15T01:31:42;10.00;99.90
22235;DHT22;11286;45.596;5.284;2023-01-15T01:34:08;9.90;99.90
22235;DHT22;11286;45.596;5.284;2023-01-15T01:36:35;9.90;99.90
22235;DHT22;11286;45.596;5.284;2023-01-15T01:39:03;10.00;99.90
22235;DHT22;11286;45.596;5.284;2023-01-15T01:41:29;10.00;99.90
22235;DHT22;11286;45.596;5.284;2023-01-15T01:44:00;10.00;99.90
22235;DHT22;11286;45.596;5.284;2023-01-15T01:46:28;10.00;99.90
22235;DHT22;11286;45.596;5.284;2023-01-15T01:49:08;10.00;99.90
22235;DHT22;11286;45.596;5.284;2023-01-15T01:51:42;10.00;99.90
22235;DHT22;11286;45.596;5.284;2023-01-15T01:54:13;10.00;99.90
22235;DHT22;11286;45.596;5.284;2023-01-15T01:56:40;10.00;99.90
22235;DHT22;11286;45.596;5.284;2023-01-15T01:59:06;10.00;99.90
22235;DHT22;11286;45.596;5.284;2023-01-15T02:01:33;10.10;99.90
22235;DHT22;11286;45.596;5.284;2023-01-15T02:03:59;10.10;99.90
22235;DHT22;11286;45.596;5.284;2023-01-15T02:06:26;10.10;99.90
22235;DHT22;11286;45.596;5.284;2023-01-15T02:08:52;10.10;99.90
22235;DHT22;11286;45.596;5.284;2023-01-15T02:11:20;10.00;99.90
22235;DHT22;11286;45.596;5.284;2023-01-15T02:17:05;9.70;99.90
22235;DHT22;11286;45.596;5.284;2023-01-15T02:25:17;10.00;99.90
22235;DHT22;11286;45.596;5.284;2023-01-15T02:27:50;10.10;99.90
22235;DHT22;11286;45.596;5.284;2023-01-15T02:30:29;10.10;99.90
22235;DHT22;11286;45.596;5.284;2023-01-15T02:33:06;10.10;99.90
22235;DHT22;11286;45.596;5.284;2023-01-15T02:35:37;10.10;99.90
22235;DHT22;11286;45.596;5.284;2023-01-15T02:38:07;10.10;99.90
22235;DHT22;11286;45.596;5.284;2023-01-15T02:40:36;10.20;99.90
22235;DHT22;11286;45.596;5.284;2023-01-15T02:43:04;10.10;99.90
22235;DHT22;11286;45.596;5.284;2023-01-15T02:45:34;10.20;99.90
22235;DHT22;11286;45.596;5.284;2023-01-15T02:48:27;10.20;99.90
22235;DHT22;11286;45.596;5.284;2023-01-15T02:51:02;10.20;99.90
22235;DHT22;11286;45.596;5.284;2023-01-15T02:53:30;10.10;99.90
22235;DHT22;11286;45.596;5.284;2023-01-15T02:56:02;10.10;99.90
22235;DHT22;11286;45.596;5.284;2023-01-15T02:58:32;10.10;99.90
22235;DHT22;11286;45.596;5.284;2023-01-15T03:01:05;10.10;99.90
22235;DHT22;11286;45.596;5.284;2023-01-15T03:03:48;10.10;99.90
22235;DHT22;11286;45.596;5.284;2023-01-15T03:08:44;10.10;99.90
22235;DHT22;11286;45.596;5.284;2023-01-15T03:11:14;10.10;99.90
22235;DHT22;11286;45.596;5.284;2023-01-15T03:16:21;10.10;99.90
22235;DHT22;11286;45.596;5.284;2023-01-15T03:19:28;10.20;99.90
22235;DHT22;11286;45.596;5.284;2023-01-15T03:22:11;10.10;99.90
22235;DHT22;11286;45.596;5.284;2023-01-15T03:24:46;10.10;99.90
22235;DHT22;11286;45.596;5.284;2023-01-15T03:27:14;10.10;99.90
22235;DHT22;11286;45.596;5.284;2023-01-15T03:29:46;10.10;99.90
22235;DHT22;11286;45.596;5.284;2023-01-15T03:32:13;10.10;99.90
22235;DHT22;11286;45.596;5.284;2023-01-15T03:34:51;10.10;99.90
22235;DHT22;11286;45.596;5.284;2023-01-15T03:37:18;10.00;99.90
22235;DHT22;11286;45.596;5.284;2023-01-15T03:39:45;10.00;99.90
22235;DHT22;11286;45.596;5.284;2023-01-15T03:45:23;10.00;99.90
22235;DHT22;11286;45.596;5.284;2023-01-15T03:51:08;9.90;99.90
22235;DHT22;11286;45.596;5.284;2023-01-15T03:53:40;9.90;99.90
22235;DHT22;11286;45.596;5.284;2023-01-15T03:56:23;9.90;99.90
22235;DHT22;11286;45.596;5.284;2023-01-15T03:58:57;9.90;99.90
22235;DHT22;11286;45.596;5.284;2023-01-15T04:01:29;9.80;99.90
22235;DHT22;11286;45.596;5.284;2023-01-15T04:03:57;9.80;99.90
22235;DHT22;11286;45.596;5.284;2023-01-15T04:06:25;9.80;99.90
22235;DHT22;11286;45.596;5.284;2023-01-15T04:08:53;9.80;99.90
22235;DHT22;11286;45.596;5.284;2023-01-15T04:11:24;9.80;99.90
22235;DHT22;11286;45.596;5.284;2023-01-15T04:13:50;9.80;99.90
22235;DHT22;11286;45.596;5.284;2023-01-15T04:16:25;9.70;99.90
22235;DHT22;11286;45.596;5.284;2023-01-15T04:18:51;9.80;99.90
22235;DHT22;11286;45.596;5.284;2023-01-15T04:21:17;9.80;99.90
22235;DHT22;11286;45.596;5.284;2023-01-15T04:23:43;9.80;99.90
22235;DHT22;11286;45.596;5.284;2023-01-15T04:26:08;9.80;99.90
22235;DHT22;11286;45.596;5.284;2023-01-15T04:28:34;9.80;99.90
22235;DHT22;11286;45.596;5.284;2023-01-15T04:31:00;9.80;99.90
22235;DHT22;11286;45.596;5.284;2023-01-15T04:33:26;9.70;99.90
22235;DHT22;11286;45.596;5.284;2023-01-15T04:35:51;9.80;99.90
22235;DHT22;11286;45.596;5.284;2023-01-15T04:38:17;9.80;99.90
22235;DHT22;11286;45.596;5.284;2023-01-15T04:40:43;9.80;99.90
22235;DHT22;11286;45.596;5.284;2023-01-15T04:43:27;9.80;99.90
22235;DHT22;11286;45.596;5.284;2023-01-15T04:46:12;9.80;99.90
22235;DHT22;11286;45.596;5.284;2023-01-15T04:48:38;9.80;99.90
22235;DHT22;11286;45.596;5.284;2023-01-15T04:51:05;9.80;99.90
22235;DHT22;11286;45.596;5.284;2023-01-15T04:53:31;9.80;99.90
22235;DHT22;11286;45.596;5.284;2023-01-15T04:56:01;9.80;99.90
22235;DHT22;11286;45.596;5.284;2023-01-15T04:58:27;9.70;99.90
22235;DHT22;11286;45.596;5.284;2023-01-15T05:00:53;9.70;99.90
22235;DHT22;11286;45.596;5.284;2023-01-15T05:03:18;9.80;99.90
22235;DHT22;11286;45.596;5.284;2023-01-15T05:05:44;9.70;99.90
22235;DHT22;11286;45.596;5.284;2023-01-15T05:08:09;9.80;99.90
22235;DHT22;11286;45.596;5.284;2023-01-15T05:10:35;9.70;99.90
22235;DHT22;11286;45.596;5.284;2023-01-15T05:13:01;9.70;99.90
22235;DHT22;11286;45.596;5.284;2023-01-15T05:15:26;9.60;99.90
22235;DHT22;11286;45.596;5.284;2023-01-15T05:17:52;9.70;99.90
22235;DHT22;11286;45.596;5.284;2023-01-15T05:20:18;9.60;99.90
22235;DHT22;11286;45.596;5.284;2023-01-15T05:22:43;9.60;99.90
22235;DHT22;11286;45.596;5.284;2023-01-15T05:25:09;9.60;99.90
22235;DHT22;11286;45.596;5.284;2023-01-15T05:27:34;9.60;99.90
22235;DHT22;11286;45.596;5.284;2023-01-15T05:30:00;9.60;99.90
22235;DHT22;11286;45.596;5.284;2023-01-15T05:32:26;9.60;99.90
22235;DHT22;11286;45.596;5.284;2023-01-15T05:34:51;9.50;99.90
22235;DHT22;11286;45.596;5.284;2023-01-15T05:37:17;9.50;99.90
22235;DHT22;11286;45.596;5.284;2023-01-15T05:39:43;9.50;99.90
22235;DHT22;11286;45.596;5.284;2023-01-15T05:42:08;9.40;99.90
22235;DHT22;11286;45.596;5.284;2023-01-15T05:44:34;9.40;99.90
22235;DHT22;11286;45.596;5.284;2023-01-15T05:47:01;9.40;99.90
22235;DHT22;11286;45.596;5.284;2023-01-15T05:49:28;9.40;99.90
22235;DHT22;11286;45.596;5.284;2023-01-15T05:51:55;9.40;99.90
22235;DHT22;11286;45.596;5.284;2023-01-15T05:54:23;9.40;99.90
22235;DHT22;11286;45.596;5.284;2023-01-15T05:56:50;9.30;99.90
22235;DHT22;11286;45.596;5.284;2023-01-15T05:59:17;9.40;99.90
22235;DHT22;11286;45.596;5.284;2023-01-15T06:01:44;9.30;99.90
22235;DHT22;11286;45.596;5.284;2023-01-15T06:04:11;9.30;99.90
22235;DHT22;11286;45.596;5.284;2023-01-15T06:06:38;9.30;99.90
22235;DHT22;11286;45.596;5.284;2023-01-15T06:09:04;9.40;99.90
22235;DHT22;11286;45.596;5.284;2023-01-15T06:11:30;9.40;99.90
22235;DHT22;11286;45.596;5.284;2023-01-15T06:13:56;9.40;99.90
22235;DHT22;11286;45.596;5.284;2023-01-15T06:16:22;9.40;99.90
22235;DHT22;11286;45.596;5.284;2023-01-15T06:18:48;9.40;99.90
22235;DHT22;11286;45.596;5.284;2023-01-15T06:21:14;9.40;99.90
22235;DHT22;11286;45.596;5.284;2023-01-15T06:23:40;9.30;99.90
22235;DHT22;11286;45.596;5.284;2023-01-15T06:26:16;9.40;99.90
22235;DHT22;11286;45.596;5.284;2023-01-15T06:28:43;9.40;99.90
22235;DHT22;11286;45.596;5.284;2023-01-15T06:31:13;9.30;99.90
22235;DHT22;11286;45.596;5.284;2023-01-15T06:33:39;9.30;99.90
22235;DHT22;11286;45.596;5.284;2023-01-15T06:36:11;9.30;99.90
22235;DHT22;11286;45.596;5.284;2023-01-15T06:38:37;9.30;99.90
22235;DHT22;11286;45.596;5.284;2023-01-15T06:41:06;9.30;99.90
22235;DHT22;11286;45.596;5.284;2023-01-15T06:43:55;9.40;99.90
22235;DHT22;11286;45.596;5.284;2023-01-15T06:46:45;9.50;99.90
22235;DHT22;11286;45.596;5.284;2023-01-15T06:49:30;9.50;99.90
22235;DHT22;11286;45.596;5.284;2023-01-15T06:51:56;9.60;99.90
22235;DHT22;11286;45.596;5.284;2023-01-15T06:54:22;9.70;99.90
22235;DHT22;11286;45.596;5.284;2023-01-15T06:56:47;9.70;99.90
22235;DHT22;11286;45.596;5.284;2023-01-15T06:59:13;9.70;99.90
22235;DHT22;11286;45.596;5.284;2023-01-15T07:01:39;9.70;99.90
22235;DHT22;11286;45.596;5.284;2023-01-15T07:04:04;9.70;99.90
22235;DHT22;11286;45.596;5.284;2023-01-15T07:06:30;9.70;99.90
22235;DHT22;11286;45.596;5.284;2023-01-15T07:08:56;9.70;99.90
22235;DHT22;11286;45.596;5.284;2023-01-15T07:11:21;9.70;99.90
22235;DHT22;11286;45.596;5.284;2023-01-15T07:13:47;9.70;99.90
22235;DHT22;11286;45.596;5.284;2023-01-15T07:16:13;9.70;99.90
22235;DHT22;11286;45.596;5.284;2023-01-15T07:18:55;9.70;99.90
22235;DHT22;11286;45.596;5.284;2023-01-15T07:21:21;9.70;99.90
22235;DHT22;11286;45.596;5.284;2023-01-15T07:23:47;9.70;99.90
22235;DHT22;11286;45.596;5.284;2023-01-15T07:26:13;9.70;99.90
22235;DHT22;11286;45.596;5.284;2023-01-15T07:28:38;9.80;99.90
22235;DHT22;11286;45.596;5.284;2023-01-15T07:31:04;9.80;99.90
22235;DHT22;11286;45.596;5.284;2023-01-15T07:33:30;9.80;99.90
22235;DHT22;11286;45.596;5.284;2023-01-15T07:35:55;9.90;99.90
22235;DHT22;11286;45.596;5.284;2023-01-15T07:38:22;10.00;99.90
22235;DHT22;11286;45.596;5.284;2023-01-15T07:40:48;9.90;99.90
22235;DHT22;11286;45.596;5.284;2023-01-15T07:43:33;10.00;99.90
22235;DHT22;11286;45.596;5.284;2023-01-15T07:46:17;9.90;99.90
22235;DHT22;11286;45.596;5.284;2023-01-15T07:49:02;10.00;99.90
22235;DHT22;11286;45.596;5.284;2023-01-15T07:51:46;10.00;99.90
22235;DHT22;11286;45.596;5.284;2023-01-15T07:54:12;10.10;99.90
22235;DHT22;11286;45.596;5.284;2023-01-15T07:56:37;10.10;99.90
22235;DHT22;11286;45.596;5.284;2023-01-15T07:59:03;10.10;99.90
22235;DHT22;11286;45.596;5.284;2023-01-15T08:01:28;10.10;99.90
22235;DHT22;11286;45.596;5.284;2023-01-15T08:03:54;10.10;99.90
22235;DHT22;11286;45.596;5.284;2023-01-15T08:06:20;10.10;99.90
22235;DHT22;11286;45.596;5.284;2023-01-15T08:08:45;10.10;99.90
22235;DHT22;11286;45.596;5.284;2023-01-15T08:11:11;10.10;99.90
22235;DHT22;11286;45.596;5.284;2023-01-15T08:13:55;10.20;99.90
22235;DHT22;11286;45.596;5.284;2023-01-15T08:16:39;10.20;99.90
22235;DHT22;11286;45.596;5.284;2023-01-15T08:19:04;10.20;99.90
22235;DHT22;11286;45.596;5.284;2023-01-15T08:21:30;10.20;99.90
22235;DHT22;11286;45.596;5.284;2023-01-15T08:23:56;10.10;99.90
22235;DHT22;11286;45.596;5.284;2023-01-15T08:26:21;10.00;99.90
22235;DHT22;11286;45.596;5.284;2023-01-15T08:28:47;9.90;99.90
22235;DHT22;11286;45.596;5.284;2023-01-15T08:31:12;9.90;99.90
22235;DHT22;11286;45.596;5.284;2023-01-15T08:33:38;9.90;99.90
22235;DHT22;11286;45.596;5.284;2023-01-15T08:36:04;9.90;99.90
22235;DHT22;11286;45.596;5.284;2023-01-15T08:38:29;9.80;99.90
22235;DHT22;11286;45.596;5.284;2023-01-15T08:40:55;9.70;99.90
22235;DHT22;11286;45.596;5.284;2023-01-15T08:43:28;9.60;99.90
22235;DHT22;11286;45.596;5.284;2023-01-15T08:45:58;9.50;99.90
22235;DHT22;11286;45.596;5.284;2023-01-15T08:48:25;9.30;99.90
22235;DHT22;11286;45.596;5.284;2023-01-15T08:50:51;9.20;99.90
22235;DHT22;11286;45.596;5.284;2023-01-15T08:53:17;9.20;99.90
22235;DHT22;11286;45.596;5.284;2023-01-15T08:55:44;9.10;99.90
22235;DHT22;11286;45.596;5.284;2023-01-15T08:58:10;8.90;99.90
22235;DHT22;11286;45.596;5.284;2023-01-15T09:00:36;8.90;99.90
22235;DHT22;11286;45.596;5.284;2023-01-15T09:03:02;8.80;99.90
22235;DHT22;11286;45.596;5.284;2023-01-15T09:05:28;8.80;99.90
22235;DHT22;11286;45.596;5.284;2023-01-15T09:07:53;8.70;99.90
22235;DHT22;11286;45.596;5.284;2023-01-15T09:10:20;8.70;99.90
22235;DHT22;11286;45.596;5.284;2023-01-15T09:12:45;8.70;99.90
22235;DHT22;11286;45.596;5.284;2023-01-15T09:15:11;8.70;99.90
22235;DHT22;11286;45.596;5.284;2023-01-15T09:17:37;8.60;99.90
22235;DHT22;11286;45.596;5.284;2023-01-15T09:20:08;8.60;99.90
22235;DHT22;11286;45.596;5.284;2023-01-15T09:22:34;8.60;99.90
22235;DHT22;11286;45.596;5.284;2023-01-15T09:25:00;8.70;99.90
22235;DHT22;11286;45.596;5.284;2023-01-15T09:27:29;8.70;99.90
22235;DHT22;11286;45.596;5.284;2023-01-15T09:29:55;8.80;99.90
22235;DHT22;11286;45.596;5.284;2023-01-15T09:32:21;8.90;99.90
22235;DHT22;11286;45.596;5.284;2023-01-15T09:34:47;8.90;99.90
22235;DHT22;11286;45.596;5.284;2023-01-15T09:37:13;9.00;99.90
22235;DHT22;11286;45.596;5.284;2023-01-15T09:39:38;9.10;99.90
22235;DHT22;11286;45.596;5.284;2023-01-15T09:50:56;9.30;99.90
22235;DHT22;11286;45.596;5.284;2023-01-15T09:56:01;9.30;99.90
22235;DHT22;11286;45.596;5.284;2023-01-15T09:58:35;9.20;99.90
22235;DHT22;11286;45.596;5.284;2023-01-15T10:01:02;9.20;99.90
22235;DHT22;11286;45.596;5.284;2023-01-15T10:03:39;9.10;99.90
22235;DHT22;11286;45.596;5.284;2023-01-15T10:06:18;9.10;99.90
22235;DHT22;11286;45.596;5.284;2023-01-15T10:08:47;9.10;99.90
22235;DHT22;11286;45.596;5.284;2023-01-15T10:16:12;9.10;99.90
22235;DHT22;11286;45.596;5.284;2023-01-15T10:18:40;9.00;99.90
22235;DHT22;11286;45.596;5.284;2023-01-15T10:24:16;9.30;99.90
22235;DHT22;11286;45.596;5.284;2023-01-15T10:26:55;9.20;99.90
22235;DHT22;11286;45.596;5.284;2023-01-15T10:29:41;9.20;99.90
22235;DHT22;11286;45.596;5.284;2023-01-15T10:32:27;9.10;99.90
22235;DHT22;11286;45.596;5.284;2023-01-15T10:41:02;8.60;99.90
22235;DHT22;11286;45.596;5.284;2023-01-15T10:46:21;8.40;99.90
22235;DHT22;11286;45.596;5.284;2023-01-15T10:48:52;8.30;99.90
22235;DHT22;11286;45.596;5.284;2023-01-15T10:51:27;8.50;99.90
22235;DHT22;11286;45.596;5.284;2023-01-15T10:54:00;8.50;99.90
22235;DHT22;11286;45.596;5.284;2023-01-15T10:56:47;8.40;99.90
22235;DHT22;11286;45.596;5.284;2023-01-15T11:01:51;8.20;99.90
22235;DHT22;11286;45.596;5.284;2023-01-15T11:04:17;8.40;99.90
22235;DHT22;11286;45.596;5.284;2023-01-15T11:06:43;8.40;99.90
22235;DHT22;11286;45.596;5.284;2023-01-15T11:09:20;8.40;99.90
22235;DHT22;11286;45.596;5.284;2023-01-15T11:11:49;8.40;99.90
22235;DHT22;11286;45.596;5.284;2023-01-15T11:14:36;8.20;99.90
22235;DHT22;11286;45.596;5.284;2023-01-15T11:17:22;8.20;99.90
22235;DHT22;11286;45.596;5.284;2023-01-15T11:22:42;8.20;99.90
22235;DHT22;11286;45.596;5.284;2023-01-15T11:25:08;7.80;99.90
22235;DHT22;11286;45.596;5.284;2023-01-15T11:27:36;7.90;99.90
22235;DHT22;11286;45.596;5.284;2023-01-15T11:30:04;7.90;99.90
22235;DHT22;11286;45.596;5.284;2023-01-15T11:32:37;7.90;99.90
22235;DHT22;11286;45.596;5.284;2023-01-15T11:35:16;8.00;99.90
22235;DHT22;11286;45.596;5.284;2023-01-15T11:37:41;7.80;99.90
22235;DHT22;11286;45.596;5.284;2023-01-15T11:40:18;7.70;99.90
22235;DHT22;11286;45.596;5.284;2023-01-15T11:42:49;7.80;99.90
22235;DHT22;11286;45.596;5.284;2023-01-15T11:45:33;7.90;99.90
22235;DHT22;11286;45.596;5.284;2023-01-15T11:48:20;8.00;99.90
22235;DHT22;11286;45.596;5.284;2023-01-15T11:51:08;8.10;99.90
22235;DHT22;11286;45.596;5.284;2023-01-15T11:53:40;8.20;99.90
22235;DHT22;11286;45.596;5.284;2023-01-15T11:56:10;8.20;99.90
22235;DHT22;11286;45.596;5.284;2023-01-15T11:58:49;8.10;99.90
22235;DHT22;11286;45.596;5.284;2023-01-15T12:01:37;8.10;99.90
22235;DHT22;11286;45.596;5.284;2023-01-15T12:04:45;8.00;99.90
22235;DHT22;11286;45.596;5.284;2023-01-15T12:07:12;8.00;99.90
22235;DHT22;11286;45.596;5.284;2023-01-15T12:12:47;8.00;99.90
22235;DHT22;11286;45.596;5.284;2023-01-15T12:18:49;7.90;99.90
22235;DHT22;11286;45.596;5.284;2023-01-15T12:20:58;7.90;99.90
22235;DHT22;11286;45.596;5.284;2023-01-15T12:26:25;7.90;99.90
22235;DHT22;11286;45.596;5.284;2023-01-15T12:37:18;7.90;99.90
22235;DHT22;11286;45.596;5.284;2023-01-15T12:40:29;7.90;99.90
22235;DHT22;11286;45.596;5.284;2023-01-15T12:42:57;7.80;99.90
22235;DHT22;11286;45.596;5.284;2023-01-15T12:45:55;7.90;99.90
22235;DHT22;11286;45.596;5.284;2023-01-15T12:48:49;7.80;99.90
22235;DHT22;11286;45.596;5.284;2023-01-15T12:51:25;7.70;99.90
22235;DHT22;11286;45.596;5.284;2023-01-15T12:54:00;7.80;99.90
22235;DHT22;11286;45.596;5.284;2023-01-15T12:56:57;7.80;99.90
22235;DHT22;11286;45.596;5.284;2023-01-15T12:59:35;7.70;99.90
22235;DHT22;11286;45.596;5.284;2023-01-15T13:05:03;7.80;99.90
22235;DHT22;11286;45.596;5.284;2023-01-15T13:07:35;7.80;99.90
22235;DHT22;11286;45.596;5.284;2023-01-15T13:10:06;7.90;99.90
22235;DHT22;11286;45.596;5.284;2023-01-15T13:12:35;7.90;99.90
22235;DHT22;11286;45.596;5.284;2023-01-15T13:15:02;7.70;99.90
22235;DHT22;11286;45.596;5.284;2023-01-15T13:20:50;7.90;99.90
22235;DHT22;11286;45.596;5.284;2023-01-15T13:26:18;7.90;99.90
22235;DHT22;11286;45.596;5.284;2023-01-15T13:37:33;8.10;99.90
22235;DHT22;11286;45.596;5.284;2023-01-15T13:40:08;8.30;99.90
22235;DHT22;11286;45.596;5.284;2023-01-15T13:42:37;8.40;99.90
22235;DHT22;11286;45.596;5.284;2023-01-15T13:45:22;8.40;99.90
22235;DHT22;11286;45.596;5.284;2023-01-15T13:47:56;8.50;99.90
22235;DHT22;11286;45.596;5.284;2023-01-15T13:53:00;8.20;99.90
22235;DHT22;11286;45.596;5.284;2023-01-15T13:55:33;8.30;99.90
22235;DHT22;11286;45.596;5.284;2023-01-15T13:58:00;8.60;99.90
22235;DHT22;11286;45.596;5.284;2023-01-15T14:00:31;8.70;99.90
22235;DHT22;11286;45.596;5.284;2023-01-15T14:02:59;8.70;99.90
22235;DHT22;11286;45.596;5.284;2023-01-15T14:05:27;8.90;99.90
22235;DHT22;11286;45.596;5.284;2023-01-15T14:07:54;9.30;99.90
22235;DHT22;11286;45.596;5.284;2023-01-15T14:10:31;9.20;99.90
22235;DHT22;11286;45.596;5.284;2023-01-15T14:18:28;10.50;99.90
22235;DHT22;11286;45.596;5.284;2023-01-15T14:20:59;10.70;99.90
22235;DHT22;11286;45.596;5.284;2023-01-15T14:35:02;15.00;99.90
22235;DHT22;11286;45.596;5.284;2023-01-15T14:37:35;15.50;99.90
22235;DHT22;11286;45.596;5.284;2023-01-15T14:40:04;14.90;99.90
22235;DHT22;11286;45.596;5.284;2023-01-15T14:42:34;15.30;99.90
22235;DHT22;11286;45.596;5.284;2023-01-15T14:45:31;15.30;99.90
22235;DHT22;11286;45.596;5.284;2023-01-15T14:48:10;15.20;99.90
22235;DHT22;11286;45.596;5.284;2023-01-15T14:50:42;14.30;99.90
22235;DHT22;11286;45.596;5.284;2023-01-15T14:55:46;14.10;99.90
22235;DHT22;11286;45.596;5.284;2023-01-15T14:58:35;14.30;99.90
22235;DHT22;11286;45.596;5.284;2023-01-15T15:01:23;14.20;99.90
22235;DHT22;11286;45.596;5.284;2023-01-15T15:03:56;14.30;99.90
22235;DHT22;11286;45.596;5.284;2023-01-15T15:06:24;14.40;99.90
22235;DHT22;11286;45.596;5.284;2023-01-15T15:08:54;14.70;99.90
22235;DHT22;11286;45.596;5.284;2023-01-15T15:11:35;13.50;99.90
22235;DHT22;11286;45.596;5.284;2023-01-15T15:14:22;12.30;99.90
22235;DHT22;11286;45.596;5.284;2023-01-15T15:16:51;13.10;99.90
22235;DHT22;11286;45.596;5.284;2023-01-15T15:21:59;12.70;99.90
22235;DHT22;11286;45.596;5.284;2023-01-15T15:24:30;12.60;99.90
22235;DHT22;11286;45.596;5.284;2023-01-15T15:27:08;12.60;99.90
22235;DHT22;11286;45.596;5.284;2023-01-15T15:29:33;11.90;99.90
22235;DHT22;11286;45.596;5.284;2023-01-15T15:32:00;10.80;99.90
22235;DHT22;11286;45.596;5.284;2023-01-15T15:34:30;10.40;99.90
22235;DHT22;11286;45.596;5.284;2023-01-15T15:37:11;9.60;99.90
22235;DHT22;11286;45.596;5.284;2023-01-15T15:39:50;9.20;99.90
22235;DHT22;11286;45.596;5.284;2023-01-15T15:42:33;9.10;99.90
22235;DHT22;11286;45.596;5.284;2023-01-15T15:45:26;9.30;99.90
22235;DHT22;11286;45.596;5.284;2023-01-15T15:48:19;10.40;99.90
22235;DHT22;11286;45.596;5.284;2023-01-15T15:51:18;10.90;99.90
22235;DHT22;11286;45.596;5.284;2023-01-15T15:53:45;10.60;99.90
22235;DHT22;11286;45.596;5.284;2023-01-15T15:56:11;10.70;99.90
22235;DHT22;11286;45.596;5.284;2023-01-15T15:58:37;10.90;99.90
22235;DHT22;11286;45.596;5.284;2023-01-15T16:01:04;11.00;99.90
22235;DHT22;11286;45.596;5.284;2023-01-15T16:03:31;10.80;99.90
22235;DHT22;11286;45.596;5.284;2023-01-15T16:06:04;10.30;99.90
22235;DHT22;11286;45.596;5.284;2023-01-15T16:08:32;9.80;99.90
22235;DHT22;11286;45.596;5.284;2023-01-15T16:11:04;9.30;99.90
22235;DHT22;11286;45.596;5.284;2023-01-15T16:13:39;9.00;99.90
22235;DHT22;11286;45.596;5.284;2023-01-15T16:16:06;8.80;99.90
22235;DHT22;11286;45.596;5.284;2023-01-15T16:18:41;8.90;99.90
22235;DHT22;11286;45.596;5.284;2023-01-15T16:21:17;9.00;99.90
22235;DHT22;11286;45.596;5.284;2023-01-15T16:23:58;8.80;99.90
22235;DHT22;11286;45.596;5.284;2023-01-15T16:26:45;8.60;99.90
22235;DHT22;11286;45.596;5.284;2023-01-15T16:29:20;8.40;99.90
22235;DHT22;11286;45.596;5.284;2023-01-15T16:31:48;8.30;99.90
22235;DHT22;11286;45.596;5.284;2023-01-15T16:34:22;8.20;99.90
22235;DHT22;11286;45.596;5.284;2023-01-15T16:36:49;8.00;99.90
22235;DHT22;11286;45.596;5.284;2023-01-15T16:42:00;7.80;99.90
22235;DHT22;11286;45.596;5.284;2023-01-15T16:44:51;7.70;99.90
22235;DHT22;11286;45.596;5.284;2023-01-15T16:47:30;7.50;99.90
22235;DHT22;11286;45.596;5.284;2023-01-15T16:52:49;7.30;99.90
22235;DHT22;11286;45.596;5.284;2023-01-15T16:55:38;7.30;99.90
22235;DHT22;11286;45.596;5.284;2023-01-15T17:03:13;7.00;99.90
22235;DHT22;11286;45.596;5.284;2023-01-15T17:05:40;6.90;99.90
22235;DHT22;11286;45.596;5.284;2023-01-15T17:08:18;6.80;99.90
22235;DHT22;11286;45.596;5.284;2023-01-15T17:10:59;6.70;99.90
22235;DHT22;11286;45.596;5.284;2023-01-15T17:13:34;6.70;99.90
22235;DHT22;11286;45.596;5.284;2023-01-15T17:16:17;6.60;99.90
22235;DHT22;11286;45.596;5.284;2023-01-15T17:18:43;6.90;99.90
22235;DHT22;11286;45.596;5.284;2023-01-15T17:21:17;6.80;99.90
22235;DHT22;11286;45.596;5.284;2023-01-15T17:23:44;6.60;99.90
22235;DHT22;11286;45.596;5.284;2023-01-15T17:26:20;6.70;99.90
22235;DHT22;11286;45.596;5.284;2023-01-15T17:28:46;6.70;99.90
22235;DHT22;11286;45.596;5.284;2023-01-15T17:33:44;6.60;99.90
22235;DHT22;11286;45.596;5.284;2023-01-15T17:36:10;6.60;99.90
22235;DHT22;11286;45.596;5.284;2023-01-15T17:38:35;6.60;99.90
22235;DHT22;11286;45.596;5.284;2023-01-15T17:41:01;6.50;99.90
22235;DHT22;11286;45.596;5.284;2023-01-15T17:43:31;6.30;99.90
22235;DHT22;11286;45.596;5.284;2023-01-15T17:45:56;6.30;99.90
22235;DHT22;11286;45.596;5.284;2023-01-15T17:48:24;6.30;99.90
22235;DHT22;11286;45.596;5.284;2023-01-15T17:50:49;6.20;99.90
22235;DHT22;11286;45.596;5.284;2023-01-15T17:53:15;6.00;99.90
22235;DHT22;11286;45.596;5.284;2023-01-15T17:55:41;6.30;99.90
22235;DHT22;11286;45.596;5.284;2023-01-15T17:58:36;6.30;99.90
22235;DHT22;11286;45.596;5.284;2023-01-15T18:01:22;6.60;99.90
22235;DHT22;11286;45.596;5.284;2023-01-15T18:04:43;6.30;99.90
22235;DHT22;11286;45.596;5.284;2023-01-15T18:07:33;6.40;99.90
22235;DHT22;11286;45.596;5.284;2023-01-15T18:10:00;6.50;99.90
22235;DHT22;11286;45.596;5.284;2023-01-15T18:12:26;6.40;99.90
22235;DHT22;11286;45.596;5.284;2023-01-15T18:14:52;6.50;99.90